OFP weather

Hanover County Municipal Airport
Richmond/Ashland, Virginia, United States

Public forecast

Using degrees Fahrenheit for public forecast. Weather courtesy of forecast.io.

Current aviation weather report (METAR) for Hanover County Municipal Airport

Retrieved 2019/10/20 03:54 UTC (37 minutes ago):

KOFP 200354Z AUTO 00000KT 10SM OVC080 12/09 A3003 RMK AO2 SLP167 T01170089

Closest aviation forecast (TAF) to Hanover County Municipal Airport

Closest forecast is Richmond International Airport, 13.4 nm (24.9 km) SSE. Retrieved 2019-10-20 00:40 UTC (4 hours ago):

TAF KRIC 192337Z 2000/2024 VRB03KT P6SM BKN250 FM200600 VRB03KT 6SM -SHRA OVC060 FM200800 05006KT 4SM RA OVC025 FM201100 04011KT 2SM RA OVC008 FM201800 01011KT P6SM OVC007